»·PEaware :: N1128 KSNA-KFAT

N1128 :: KSNA-KFAT

FLIGHT INFORMATION

Flight Status: Arrived
Operator: Privately registered:
United States
More flights under this callsign
Pilot: Siddique N. (20419)
Aircraft: Unknown
(BT7)
More flights by this aircraft type
Origin: KSNA John Wayne-Orange Co
United States
Destination: KFAT Fresno Yosemite Intl
United States
More flights between these airports :: More routes between these airports
Route: HHERO3 EHF TTE ALTTA9
File this flight plan on PilotEdge
Remarks:
Altitude:
(Current/Filed)
20,000ft
Speed:
(Current/Filed)
300kts
Departed: 15-Sep-20 09:55 AM
Arrived: 15-Sep-20 10:43 AM
Distance/Time
Traveled:
207nm/0:48
Distance/Time
To Go:
Arrived

Flight Plot

Page will automatically refresh every two minutes.

Flight plan parsing failed; only flown route is shown


Map Options




Map Legend


Flown Route
Filed Route
Departure Airport
Arrival Airport
Navaid (VOR, NDB)
Fix

Horizontal Profiles

Position Reports

Time Latitude Longitude Heading Altitude Ground
Speed
15-Sep-20 09:28 33.675842 -117.871049 220 61ft 0kts
15-Sep-20 09:28 33.675842 -117.871049 220 61ft 0kts
15-Sep-20 09:29 33.675842 -117.871049 220 61ft 0kts
15-Sep-20 09:30 33.675842 -117.871049 220 61ft 0kts
15-Sep-20 09:32 33.675842 -117.871049 220 61ft 0kts
15-Sep-20 09:32 33.675842 -117.871049 220 61ft 0kts
15-Sep-20 09:33 33.675842 -117.871049 220 61ft 0kts
15-Sep-20 09:34 33.675842 -117.871049 220 61ft 0kts
15-Sep-20 09:35 33.675842 -117.871049 220 61ft 0kts
15-Sep-20 09:36 33.675842 -117.871049 220 61ft 0kts
15-Sep-20 09:37 33.675842 -117.871049 220 61ft 0kts
15-Sep-20 09:38 33.675842 -117.871049 220 61ft 0kts
15-Sep-20 09:39 33.675842 -117.871049 220 61ft 0kts
15-Sep-20 09:40 33.675842 -117.871049 220 61ft 0kts
15-Sep-20 09:41 33.675842 -117.871049 220 61ft 0kts
15-Sep-20 09:42 33.675842 -117.871049 220 61ft 0kts
15-Sep-20 09:43 33.675842 -117.871049 220 61ft 0kts
15-Sep-20 09:44 33.675842 -117.871049 220 61ft 0kts
15-Sep-20 09:45 33.675842 -117.871049 220 61ft 0kts
15-Sep-20 09:46 33.675842 -117.871049 220 61ft 0kts
15-Sep-20 09:47 33.675842 -117.871049 220 61ft 0kts
15-Sep-20 09:48 33.675842 -117.871049 220 61ft 0kts
15-Sep-20 09:49 33.675842 -117.871049 220 61ft 0kts
15-Sep-20 09:50 33.675761 -117.870989 110 61ft 2kts
15-Sep-20 09:51 33.680917 -117.867228 29 61ft 19kts
15-Sep-20 09:52 33.681266 -117.866575 91 61ft 0kts
15-Sep-20 09:53 33.680890 -117.865558 206 61ft 0kts
15-Sep-20 09:54 33.641406 -117.888681 187 842ft 199kts
15-Sep-20 09:55 33.583989 -117.896913 197 2061ft 208kts
15-Sep-20 09:56 33.540861 -117.936861 222 3325ft 197kts
15-Sep-20 09:57 33.495929 -117.988878 224 4920ft 234kts
15-Sep-20 09:58 33.457586 -118.053166 238 6603ft 235kts
15-Sep-20 09:59 33.425083 -118.120856 241 8617ft 238kts
15-Sep-20 10:00 33.424081 -118.199268 281 10872ft 259kts
15-Sep-20 10:01 33.442074 -118.293327 277 14489ft 318kts
15-Sep-20 10:02 33.489680 -118.398918 297 18398ft 407kts
15-Sep-20 10:03 33.578104 -118.478601 0 19995ft 438kts
15-Sep-20 10:04 33.700898 -118.458337 2 19946ft 449kts
15-Sep-20 10:05 33.826082 -118.450495 358 19939ft 450kts
15-Sep-20 10:06 33.952098 -118.448556 354 19942ft 460kts
15-Sep-20 10:07 34.081465 -118.464823 349 19941ft 475kts
15-Sep-20 10:08 34.210218 -118.483910 349 19930ft 452kts
15-Sep-20 10:09 34.331921 -118.501194 349 19906ft 431kts
15-Sep-20 10:10 34.448713 -118.517089 349 19910ft 420kts
15-Sep-20 10:11 34.566650 -118.535142 348 19912ft 435kts
15-Sep-20 10:12 34.687948 -118.556644 348 19965ft 446kts
15-Sep-20 10:13 34.811919 -118.578580 348 19971ft 457kts
15-Sep-20 10:14 34.939081 -118.597753 352 20102ft 466kts
15-Sep-20 10:15 35.057966 -118.647313 323 20103ft 459kts
15-Sep-20 10:16 35.155590 -118.741139 315 20095ft 421kts
15-Sep-20 10:17 35.243200 -118.830146 315 19997ft 418kts
15-Sep-20 10:18 35.340067 -118.930421 315 19865ft 484kts
15-Sep-20 10:19 35.441113 -119.040631 314 19849ft 461kts
15-Sep-20 10:20 35.552418 -119.074212 9 19869ft 436kts
15-Sep-20 10:21 35.668378 -119.048097 4 18835ft 424kts
15-Sep-20 10:22 35.780637 -119.028286 4 16800ft 383kts
15-Sep-20 10:23 35.881570 -119.018209 355 14762ft 341kts
15-Sep-20 10:24 35.968735 -119.042658 337 13849ft 285kts
15-Sep-20 10:25 36.039029 -119.072969 336 13615ft 268kts
15-Sep-20 10:26 36.107290 -119.104805 335 12283ft 255kts
15-Sep-20 10:31 36.373541 -119.242286 338 9852ft 244kts
15-Sep-20 10:32 36.436560 -119.271743 339 9242ft 241kts
15-Sep-20 10:33 36.496089 -119.299168 339 8197ft 225kts
15-Sep-20 10:34 36.554212 -119.330025 309 7174ft 224kts
15-Sep-20 10:35 36.592693 -119.391249 307 5920ft 220kts
15-Sep-20 10:36 36.627156 -119.448905 305 5460ft 192kts
15-Sep-20 10:37 36.657070 -119.500841 305 4063ft 197kts
15-Sep-20 10:38 36.688179 -119.556526 305 3408ft 197kts
15-Sep-20 10:39 36.717607 -119.609688 302 2109ft 151kts
15-Sep-20 10:40 36.741904 -119.655945 304 1285ft 153kts
15-Sep-20 10:41 36.766274 -119.698877 304 444ft 139kts
15-Sep-20 10:42 36.776430 -119.718225 279 334ft 0kts
15-Sep-20 10:43 36.776518 -119.720123 254 334ft 8kts
15-Sep-20 10:44 36.774389 -119.721121 215 334ft 5kts
15-Sep-20 10:45 36.773393 -119.721466 135 334ft 0kts
15-Sep-20 10:46 36.773393 -119.721466 135 334ft 0kts

Navigation Log

Ident Type
Flight plan parsing failed, navigation log unavailable